Time;durP1;ratioP1;P1;durP2;ratioP2;P2;SDS_P1;SDS_P2;PMS_P1;PMS_P2;Temp;Humidity;BMP_temperature;BMP_pressure;BME280_temperature;BME280_humidity;BME280_pressure;Samples;Min_cycle;Max_cycle;Signal;HPM_P1;HPM_P2
2022/01/16 00:00:47;;;;;;;198.68;39.35;;;-0.70;99.90;;;;;;4951251;29;20047;-60
2022/01/16 00:05:57;;;;;;;151.80;45.65;;;-0.90;99.90;;;;;;4949044;29;20094;-59
2022/01/16 00:08:23;;;;;;;177.10;54.95;;;-0.90;99.90;;;;;;4950237;28;20039;-59
2022/01/16 00:10:49;;;;;;;148.88;50.28;;;-0.90;99.90;;;;;;4949281;29;20034;-59
2022/01/16 00:13:15;;;;;;;140.48;40.33;;;-0.90;99.90;;;;;;4951518;28;20043;-59
2022/01/16 00:15:44;;;;;;;86.55;33.20;;;-1.00;99.90;;;;;;4950638;29;20027;-59
2022/01/16 00:18:19;;;;;;;239.82;54.92;;;-1.00;99.90;;;;;;4949026;29;20404;-59
2022/01/16 00:20:45;;;;;;;229.65;41.45;;;-1.00;99.90;;;;;;4952187;29;20500;-60
2022/01/16 00:23:11;;;;;;;289.38;77.60;;;-1.00;99.90;;;;;;4952722;29;20042;-59
2022/01/16 00:25:37;;;;;;;109.20;43.63;;;-1.10;99.90;;;;;;4952753;29;20032;-59
2022/01/16 00:28:03;;;;;;;94.80;40.90;;;-1.00;99.90;;;;;;4956491;28;20114;-59
2022/01/16 00:30:29;;;;;;;87.05;39.80;;;-1.00;99.90;;;;;;4952443;29;20071;-59
2022/01/16 00:32:59;;;;;;;105.82;40.63;;;-1.10;99.90;;;;;;4960855;28;20536;-60
2022/01/16 00:35:25;;;;;;;59.50;33.00;;;-1.00;99.90;;;;;;4944030;29;20485;-59
2022/01/16 00:37:52;;;;;;;335.40;248.70;;;-1.10;99.90;;;;;;4952568;29;20687;-59
2022/01/16 00:40:18;;;;;;;83.97;45.65;;;-1.20;99.90;;;;;;4953849;28;20028;-59
2022/01/16 00:42:44;;;;;;;51.75;30.85;;;-1.20;99.90;;;;;;4954063;29;20031;-59
2022/01/16 00:45:10;;;;;;;221.48;91.10;;;-1.20;99.90;;;;;;4952262;29;20058;-60
2022/01/16 00:47:36;;;;;;;105.30;47.40;;;-1.20;99.90;;;;;;4953838;29;20393;-59
2022/01/16 00:50:03;;;;;;;105.57;51.78;;;-1.20;99.90;;;;;;4952339;28;20407;-59
2022/01/16 00:52:28;;;;;;;76.45;40.97;;;-1.20;99.90;;;;;;4952792;28;20474;-59
2022/01/16 00:54:55;;;;;;;60.83;34.58;;;-1.10;99.90;;;;;;4955296;29;20031;-60
2022/01/16 00:57:20;;;;;;;44.30;27.55;;;-1.10;99.90;;;;;;4951976;28;20043;-59
2022/01/16 00:59:48;;;;;;;41.67;25.67;;;-1.00;99.90;;;;;;4951986;29;20028;-60
2022/01/16 01:02:13;;;;;;;39.30;24.95;;;-1.10;99.90;;;;;;4952259;28;20028;-59
2022/01/16 01:04:41;;;;;;;38.05;24.10;;;-1.20;99.90;;;;;;4952034;28;20044;-59
2022/01/16 01:07:07;;;;;;;35.15;22.83;;;-1.30;99.90;;;;;;4954687;28;20103;-60
2022/01/16 01:09:33;;;;;;;38.97;23.33;;;-1.30;99.90;;;;;;4952852;29;20871;-59
2022/01/16 01:11:58;;;;;;;34.35;21.40;;;-1.10;99.90;;;;;;4951695;28;20074;-59
2022/01/16 01:14:39;;;;;;;33.28;22.35;;;-1.30;99.90;;;;;;4951801;29;20027;-60
2022/01/16 01:17:08;;;;;;;46.17;26.88;;;-1.20;99.90;;;;;;4951649;29;20035;-60
2022/01/16 01:19:34;;;;;;;39.70;25.27;;;-1.20;99.90;;;;;;4938505;28;20059;-60
2022/01/16 01:22:02;;;;;;;55.75;26.95;;;-1.20;99.90;;;;;;4951343;29;20476;-60
2022/01/16 01:24:30;;;;;;;50.33;26.67;;;-1.30;99.90;;;;;;4951681;28;20031;-59
2022/01/16 01:27:12;;;;;;;45.35;26.73;;;-1.20;99.90;;;;;;4952766;29;20031;-59
2022/01/16 01:29:41;;;;;;;36.97;23.95;;;-1.20;99.90;;;;;;4951336;28;20035;-60
2022/01/16 01:32:07;;;;;;;35.53;21.88;;;-1.20;99.90;;;;;;4950628;28;20024;-59
2022/01/16 01:34:32;;;;;;;36.13;22.90;;;-1.20;99.90;;;;;;4936211;29;20035;-60
2022/01/16 01:36:58;;;;;;;38.15;24.73;;;-1.30;99.90;;;;;;4955356;29;20031;-59
2022/01/16 01:39:24;;;;;;;39.80;24.08;;;-1.30;99.90;;;;;;4951334;29;20023;-60
2022/01/16 01:41:55;;;;;;;52.35;26.52;;;-1.30;99.90;;;;;;4951082;29;20527;-59
2022/01/16 01:52:34;;;;;;;65.10;43.53;;;-1.30;99.90;;;;;;4936276;29;20038;-59
2022/01/16 01:55:00;;;;;;;95.70;44.30;;;-1.30;99.90;;;;;;4955085;28;20086;-59
2022/01/16 01:57:26;;;;;;;66.45;40.97;;;-1.30;99.90;;;;;;4950794;28;20039;-59
2022/01/16 01:59:52;;;;;;;70.05;41.58;;;-1.30;99.90;;;;;;4952440;29;20078;-60
2022/01/16 02:02:18;;;;;;;65.85;39.50;;;-1.40;99.90;;;;;;4950737;28;20070;-60
2022/01/16 02:04:43;;;;;;;69.60;44.20;;;-1.30;99.90;;;;;;4952075;29;20110;-60
2022/01/16 02:07:09;;;;;;;60.50;38.83;;;-1.30;99.90;;;;;;4953722;28;20503;-60
2022/01/16 02:09:37;;;;;;;57.03;37.95;;;-1.10;99.90;;;;;;4951878;29;20028;-60
2022/01/16 02:12:03;;;;;;;95.40;45.17;;;-1.00;99.90;;;;;;4950574;29;20032;-59
2022/01/16 02:14:34;;;;;;;223.30;54.65;;;-1.10;99.90;;;;;;4950439;29;20027;-59
2022/01/16 02:34:30;;;;;;;83.88;40.20;;;-1.10;99.90;;;;;;4950068;28;20174;-59
2022/01/16 02:36:16;;;;;;;101.20;42.33;;;-0.90;99.90;;;;;;4950157;28;20042;-59
2022/01/16 02:38:41;;;;;;;118.10;43.20;;;-0.90;99.90;;;;;;4951561;28;20031;-60
2022/01/16 02:41:07;;;;;;;112.65;43.63;;;-0.80;99.90;;;;;;4950480;28;20158;-60
2022/01/16 02:43:35;;;;;;;102.80;37.67;;;-0.80;99.90;;;;;;4935981;29;20047;-60
2022/01/16 02:48:48;;;;;;;88.88;34.72;;;-0.80;99.90;;;;;;4950940;29;20047;-59
2022/01/16 02:51:24;;;;;;;74.10;30.90;;;-0.80;99.90;;;;;;4950171;29;20154;-59
2022/01/16 02:53:51;;;;;;;76.90;32.25;;;-0.80;99.90;;;;;;4949939;28;20093;-60
2022/01/16 02:56:18;;;;;;;75.50;26.50;;;-0.70;99.90;;;;;;4950237;29;20038;-59
2022/01/16 02:58:45;;;;;;;60.30;25.17;;;-0.70;99.90;;;;;;4949959;28;20059;-59
2022/01/16 03:01:12;;;;;;;126.10;25.67;;;-0.60;99.90;;;;;;4952380;28;20099;-59
2022/01/16 03:03:37;;;;;;;155.57;31.90;;;-0.70;99.90;;;;;;4952740;29;20023;-60
2022/01/16 03:06:03;;;;;;;174.63;40.25;;;-0.80;99.90;;;;;;4950168;29;20031;-59
2022/01/16 03:08:29;;;;;;;113.72;22.85;;;-0.80;99.90;;;;;;4948580;29;20090;-59
2022/01/16 03:13:22;;;;;;;140.65;29.52;;;-1.10;99.90;;;;;;4951779;29;20023;-59
2022/01/16 03:15:50;;;;;;;127.00;26.48;;;-1.20;99.90;;;;;;4951773;29;20058;-59
2022/01/16 03:23:26;;;;;;;143.75;37.10;;;-1.40;99.90;;;;;;4951500;29;20050;-59
2022/01/16 03:25:53;;;;;;;106.30;56.05;;;-1.40;99.90;;;;;;4950147;28;20374;-59
2022/01/16 03:28:19;;;;;;;156.95;65.07;;;-1.30;99.90;;;;;;4951706;28;20499;-60
2022/01/16 03:30:46;;;;;;;76.28;37.20;;;-1.40;99.90;;;;;;4951233;29;20051;-59
2022/01/16 03:33:12;;;;;;;77.28;33.67;;;-1.50;99.90;;;;;;4949652;28;20118;-60
2022/01/16 03:35:39;;;;;;;69.95;32.38;;;-1.60;99.90;;;;;;4949718;28;20039;-59
2022/01/16 03:38:05;;;;;;;67.45;33.10;;;-1.60;99.90;;;;;;4950112;29;20046;-59
2022/01/16 03:40:31;;;;;;;55.83;34.50;;;-1.70;99.90;;;;;;4950269;29;20035;-60
2022/01/16 03:43:04;;;;;;;46.40;31.00;;;-1.70;99.90;;;;;;4952701;29;20043;-59
2022/01/16 03:45:30;;;;;;;37.58;27.40;;;-1.70;99.90;;;;;;4948241;29;20047;-60
2022/01/16 03:47:56;;;;;;;74.18;56.88;;;-1.80;99.90;;;;;;4949460;29;20556;-59
2022/01/16 03:50:22;;;;;;;58.92;44.17;;;-1.60;99.90;;;;;;4949594;28;20064;-59
2022/01/16 03:52:47;;;;;;;53.63;38.00;;;-1.60;99.90;;;;;;4949741;29;20058;-59
2022/01/16 03:55:13;;;;;;;44.15;32.58;;;-1.70;99.90;;;;;;4954646;28;20170;-60
2022/01/16 03:57:39;;;;;;;76.68;57.22;;;-1.70;99.90;;;;;;4956123;29;20512;-58
2022/01/16 04:00:07;;;;;;;102.63;73.20;;;-1.80;99.90;;;;;;4952965;29;20718;-60
2022/01/16 04:02:33;;;;;;;76.30;56.78;;;-1.70;99.90;;;;;;4954406;28;20027;-60
2022/01/16 04:04:59;;;;;;;44.08;33.20;;;-1.70;99.90;;;;;;4953558;29;20035;-59
2022/01/16 04:07:29;;;;;;;38.53;29.85;;;-1.70;99.90;;;;;;4954646;29;20027;-59
2022/01/16 04:09:55;;;;;;;43.15;32.33;;;-1.90;99.90;;;;;;4956146;29;20047;-59
2022/01/16 04:12:23;;;;;;;74.75;59.17;;;-1.90;99.90;;;;;;4952668;29;20031;-59
2022/01/16 04:17:18;;;;;;;50.00;39.22;;;-2.00;99.90;;;;;;4952798;29;20135;-59
2022/01/16 04:19:44;;;;;;;43.97;33.45;;;-1.90;99.90;;;;;;4955253;29;20031;-59
2022/01/16 04:22:10;;;;;;;46.90;35.10;;;-1.90;99.90;;;;;;4970373;28;20038;-59
2022/01/16 04:24:36;;;;;;;46.72;33.17;;;-2.00;99.90;;;;;;4952837;29;20028;-59
2022/01/16 04:27:03;;;;;;;42.42;33.13;;;-2.00;99.90;;;;;;4952841;29;20035;-60
2022/01/16 04:29:28;;;;;;;42.88;31.25;;;-2.00;99.90;;;;;;4950476;28;20122;-59
2022/01/16 04:31:54;;;;;;;49.97;34.83;;;-2.10;99.90;;;;;;4952982;29;20059;-60
2022/01/16 04:34:20;;;;;;;45.65;33.30;;;-2.00;99.90;;;;;;4954176;29;20038;-59
2022/01/16 04:36:46;;;;;;;45.65;31.67;;;-2.10;99.90;;;;;;4956733;29;20028;-59
2022/01/16 04:39:18;;;;;;;41.28;30.08;;;-1.90;99.90;;;;;;4952461;28;20038;-59
2022/01/16 04:44:28;;;;;;;48.33;34.78;;;-2.10;99.90;;;;;;4951845;29;20105;-60
2022/01/16 04:46:55;;;;;;;56.30;42.83;;;-2.20;99.90;;;;;;4952398;29;20155;-59
2022/01/16 04:49:20;;;;;;;59.50;46.83;;;-2.20;99.90;;;;;;4954189;29;20039;-59
2022/01/16 04:51:46;;;;;;;59.65;45.58;;;-2.10;99.90;;;;;;4954602;29;20030;-58
2022/01/16 04:54:12;;;;;;;49.88;39.25;;;-2.10;99.90;;;;;;4952084;29;20039;-60
2022/01/16 04:56:38;;;;;;;49.80;38.50;;;-2.20;99.90;;;;;;4952032;29;20094;-59
2022/01/16 04:59:03;;;;;;;50.83;42.28;;;-2.30;99.90;;;;;;4951811;29;20086;-60
2022/01/16 05:01:29;;;;;;;49.22;37.58;;;-2.50;99.90;;;;;;4953110;28;20028;-60
2022/01/16 05:03:55;;;;;;;41.08;31.20;;;-2.70;99.90;;;;;;4955629;29;20469;-60
2022/01/16 05:06:21;;;;;;;42.67;33.20;;;-2.90;99.90;;;;;;4951890;28;20037;-59
2022/01/16 05:08:47;;;;;;;40.92;31.08;;;-2.70;99.90;;;;;;4951806;29;20074;-60
2022/01/16 05:11:15;;;;;;;41.15;31.52;;;-2.50;99.90;;;;;;4952031;28;20095;-60
2022/01/16 05:18:53;;;;;;;41.40;31.35;;;-2.50;99.90;;;;;;4955167;29;20396;-60
2022/01/16 05:21:20;;;;;;;43.80;32.55;;;-2.80;99.90;;;;;;4953229;29;20027;-60
2022/01/16 05:23:46;;;;;;;39.65;29.33;;;-2.90;99.90;;;;;;4951686;29;20035;-60
2022/01/16 05:26:14;;;;;;;36.80;29.15;;;-2.90;99.90;;;;;;4951333;29;20050;-60
2022/01/16 05:28:40;;;;;;;41.83;32.92;;;-2.80;99.90;;;;;;4951558;28;20035;-60
2022/01/16 05:31:06;;;;;;;47.80;36.85;;;-2.50;99.90;;;;;;4955118;28;20453;-60
2022/01/16 05:33:32;;;;;;;46.65;36.63;;;-2.50;99.90;;;;;;4952304;28;20033;-60
2022/01/16 05:35:57;;;;;;;56.92;46.58;;;-2.50;99.90;;;;;;4951695;29;20114;-60
2022/01/16 05:38:23;;;;;;;48.70;38.35;;;-2.50;99.90;;;;;;4951248;29;20106;-60
2022/01/16 05:40:49;;;;;;;47.15;37.45;;;-2.40;99.90;;;;;;4951071;29;20020;-60
2022/01/16 05:43:15;;;;;;;52.75;41.60;;;-2.40;99.90;;;;;;4953578;28;20055;-60
2022/01/16 05:45:41;;;;;;;68.43;54.50;;;-2.50;99.90;;;;;;4952774;28;20086;-59
2022/01/16 05:48:06;;;;;;;76.68;59.90;;;-2.30;99.90;;;;;;4951030;29;20050;-60
2022/01/16 05:50:33;;;;;;;81.03;61.50;;;-2.40;99.90;;;;;;4951155;28;20050;-60
2022/01/16 05:53:00;;;;;;;97.45;75.90;;;-2.40;99.90;;;;;;4952578;29;20047;-60
2022/01/16 05:55:36;;;;;;;137.60;107.82;;;-2.40;99.90;;;;;;4952235;28;20070;-60
2022/01/16 05:58:03;;;;;;;96.35;72.82;;;-2.40;99.90;;;;;;4955550;28;20058;-60
2022/01/16 06:00:30;;;;;;;81.07;62.10;;;-2.20;99.90;;;;;;4952273;29;20035;-59
2022/01/16 06:02:56;;;;;;;53.33;40.60;;;-2.30;99.90;;;;;;4950809;29;20035;-60
2022/01/16 06:05:22;;;;;;;46.58;35.97;;;-2.40;99.90;;;;;;4950968;29;20023;-60
2022/01/16 06:07:53;;;;;;;65.18;43.28;;;-2.30;99.90;;;;;;4951152;28;20065;-60
2022/01/16 06:10:23;;;;;;;66.55;44.20;;;-2.30;99.90;;;;;;4952886;28;20027;-60
2022/01/16 06:12:49;;;;;;;58.40;38.00;;;-2.30;99.90;;;;;;4952964;29;20070;-60
2022/01/16 06:15:15;;;;;;;53.30;36.00;;;-2.20;99.90;;;;;;4950708;29;20024;-60
2022/01/16 06:17:42;;;;;;;46.20;32.88;;;-2.20;99.90;;;;;;4950416;28;20369;-60
2022/01/16 06:20:08;;;;;;;43.13;32.45;;;-2.20;99.90;;;;;;4950862;29;20066;-61
2022/01/16 06:22:33;;;;;;;41.78;33.05;;;-2.20;99.90;;;;;;4935597;29;20035;-60
2022/01/16 06:24:59;;;;;;;42.30;32.08;;;-2.10;99.90;;;;;;4953729;29;20031;-61
2022/01/16 06:27:25;;;;;;;51.53;37.10;;;-2.00;99.90;;;;;;4950414;29;20035;-60
2022/01/16 06:29:50;;;;;;;90.70;48.58;;;-2.00;99.90;;;;;;4950669;28;20074;-60
2022/01/16 06:32:16;;;;;;;113.75;57.85;;;-2.00;99.90;;;;;;4951475;29;20041;-59
2022/01/16 06:34:42;;;;;;;167.32;74.10;;;-2.10;99.90;;;;;;4950992;28;20511;-60
2022/01/16 06:37:07;;;;;;;201.55;86.60;;;-2.10;99.90;;;;;;4953404;29;20106;-59
2022/01/16 06:39:34;;;;;;;295.33;94.65;;;-2.10;99.90;;;;;;4952072;29;20038;-60
2022/01/16 06:42:00;;;;;;;283.70;104.43;;;-2.20;99.90;;;;;;4950470;29;20028;-60
2022/01/16 06:44:25;;;;;;;173.15;73.97;;;-2.30;99.90;;;;;;4949927;28;20047;-60
2022/01/16 06:46:51;;;;;;;206.82;83.03;;;-2.20;99.90;;;;;;4950429;29;20090;-60
2022/01/16 06:49:17;;;;;;;212.32;68.70;;;-2.10;99.90;;;;;;4952467;29;20043;-60
2022/01/16 06:51:42;;;;;;;184.82;70.43;;;-2.20;99.90;;;;;;4952003;29;20046;-59
2022/01/16 06:54:08;;;;;;;209.52;81.90;;;-2.20;99.90;;;;;;4949852;28;20035;-61
2022/01/16 06:56:34;;;;;;;142.20;72.13;;;-2.20;99.90;;;;;;4949902;29;20031;-59
2022/01/16 06:58:59;;;;;;;116.38;54.67;;;-2.20;99.90;;;;;;4949989;29;20051;-61
2022/01/16 07:01:26;;;;;;;87.03;43.15;;;-2.20;99.90;;;;;;4952054;29;20488;-60
2022/01/16 07:03:54;;;;;;;122.97;45.88;;;-2.20;99.90;;;;;;4952630;29;20023;-60
2022/01/16 07:06:20;;;;;;;208.80;57.78;;;-2.10;99.90;;;;;;4949795;28;20190;-60
2022/01/16 07:08:48;;;;;;;117.35;46.13;;;-2.10;99.90;;;;;;4949568;29;20043;-59
2022/01/16 07:11:15;;;;;;;156.90;46.78;;;-2.20;99.90;;;;;;4951410;29;20051;-60
2022/01/16 07:13:40;;;;;;;204.40;60.83;;;-2.20;99.90;;;;;;4949825;29;20082;-60
2022/01/16 07:16:06;;;;;;;176.57;54.15;;;-2.40;99.90;;;;;;4953690;29;20489;-58
2022/01/16 07:18:32;;;;;;;105.72;45.22;;;-2.40;99.90;;;;;;4952057;29;20031;-60
2022/01/16 07:20:57;;;;;;;127.00;48.83;;;-2.50;99.90;;;;;;4949589;29;20474;-60
2022/01/16 07:23:23;;;;;;;147.48;50.60;;;-2.60;99.90;;;;;;4949342;29;20027;-60
2022/01/16 07:25:49;;;;;;;58.45;35.33;;;-2.60;99.90;;;;;;4949895;29;20032;-60
2022/01/16 07:28:16;;;;;;;75.25;35.60;;;-2.50;99.90;;;;;;4951943;28;20043;-60
2022/01/16 07:30:43;;;;;;;107.22;40.70;;;-2.40;99.90;;;;;;4954741;29;20507;-59
2022/01/16 07:33:09;;;;;;;94.93;49.08;;;-2.50;99.90;;;;;;4953992;29;20042;-60
2022/01/16 07:35:36;;;;;;;123.53;86.63;;;-2.50;99.90;;;;;;4953412;28;20031;-59
2022/01/16 07:38:03;;;;;;;79.07;52.05;;;-2.50;99.90;;;;;;4953511;29;20377;-59
2022/01/16 07:40:29;;;;;;;73.47;51.10;;;-2.50;99.90;;;;;;4954987;28;20035;-60
2022/01/16 07:42:54;;;;;;;72.55;50.22;;;-2.50;99.90;;;;;;4956094;29;20098;-60
2022/01/16 07:45:21;;;;;;;50.08;33.55;;;-2.40;99.90;;;;;;4953520;29;20067;-59
2022/01/16 07:47:47;;;;;;;51.60;34.83;;;-2.50;99.90;;;;;;4953321;29;20492;-60
2022/01/16 07:50:15;;;;;;;60.05;40.15;;;-2.40;99.90;;;;;;4954773;28;20115;-59
2022/01/16 07:52:41;;;;;;;66.30;40.65;;;-2.50;99.90;;;;;;4952996;28;20110;-59
2022/01/16 07:55:08;;;;;;;68.22;40.65;;;-2.40;99.90;;;;;;4957014;28;20543;-59
2022/01/16 07:57:33;;;;;;;61.63;39.63;;;-2.20;99.90;;;;;;4953892;29;20035;-60
2022/01/16 07:59:59;;;;;;;59.97;40.22;;;-2.20;99.90;;;;;;4953257;28;20031;-59
2022/01/16 08:02:25;;;;;;;55.72;39.08;;;-1.90;99.90;;;;;;4953440;29;20404;-60
2022/01/16 08:04:51;;;;;;;49.42;34.38;;;-1.90;99.90;;;;;;4953123;29;20078;-59
2022/01/16 08:07:17;;;;;;;49.45;36.45;;;-2.10;99.90;;;;;;4955104;29;20114;-60
2022/01/16 08:09:43;;;;;;;49.83;37.03;;;-1.80;99.90;;;;;;4954608;29;20046;-60
2022/01/16 08:12:11;;;;;;;50.17;35.50;;;-1.90;99.90;;;;;;4952859;28;20054;-60
2022/01/16 08:14:37;;;;;;;44.55;33.20;;;-1.80;99.90;;;;;;4953015;28;20039;-59
2022/01/16 08:17:03;;;;;;;58.72;44.42;;;-1.40;99.90;;;;;;4952812;29;20035;-60
2022/01/16 08:19:29;;;;;;;43.22;34.22;;;-1.20;99.90;;;;;;4953838;29;20027;-59
2022/01/16 08:21:55;;;;;;;42.13;33.83;;;-0.80;99.90;;;;;;4955959;29;20031;-59
2022/01/16 08:24:21;;;;;;;36.85;30.45;;;0.30;99.90;;;;;;4952711;28;20024;-59
2022/01/16 08:26:47;;;;;;;34.10;28.30;;;1.00;99.90;;;;;;4952825;29;20113;-60
2022/01/16 08:29:13;;;;;;;35.47;27.30;;;1.50;99.90;;;;;;4953896;29;20035;-60
2022/01/16 08:31:39;;;;;;;39.92;32.63;;;1.40;99.90;;;;;;4952647;29;20114;-59
2022/01/16 08:34:05;;;;;;;34.00;28.77;;;1.20;99.90;;;;;;4956843;29;20184;-60
2022/01/16 08:36:31;;;;;;;36.70;28.60;;;1.10;99.90;;;;;;4954232;29;20032;-59
2022/01/16 08:38:57;;;;;;;33.65;27.98;;;1.10;99.90;;;;;;4952759;28;20082;-59
2022/01/16 08:41:24;;;;;;;33.95;27.65;;;0.90;99.90;;;;;;4952168;28;20381;-60
2022/01/16 08:43:50;;;;;;;30.10;25.27;;;0.20;99.90;;;;;;4952169;29;20126;-59
2022/01/16 08:46:16;;;;;;;32.47;24.90;;;0.70;99.90;;;;;;4954533;28;20066;-59
2022/01/16 08:48:42;;;;;;;34.90;25.80;;;0.40;99.90;;;;;;4953881;29;20035;-60
2022/01/16 08:51:08;;;;;;;33.42;27.02;;;0.10;99.90;;;;;;4952322;29;20027;-60
2022/01/16 08:53:34;;;;;;;30.88;24.70;;;-0.20;99.90;;;;;;4947509;28;20436;-60
2022/01/16 08:56:00;;;;;;;28.00;24.10;;;0.00;99.90;;;;;;4940399;29;20034;-60
2022/01/16 08:58:27;;;;;;;34.00;25.77;;;0.10;99.90;;;;;;4953751;29;20110;-60
2022/01/16 09:00:53;;;;;;;33.78;26.85;;;0.30;99.90;;;;;;4954865;29;20024;-59
2022/01/16 09:03:20;;;;;;;33.95;26.73;;;0.00;99.90;;;;;;4951939;29;20058;-59
2022/01/16 09:05:47;;;;;;;37.45;27.50;;;-0.10;99.90;;;;;;4951752;29;20028;-59
2022/01/16 09:08:13;;;;;;;42.00;29.52;;;-0.20;99.90;;;;;;4953187;29;20035;-59
2022/01/16 09:10:41;;;;;;;41.00;32.35;;;-0.20;99.90;;;;;;4956537;28;20042;-59
2022/01/16 09:13:11;;;;;;;43.65;33.92;;;0.20;99.90;;;;;;4944330;28;20170;-59
2022/01/16 09:15:38;;;;;;;33.50;27.85;;;-0.10;99.90;;;;;;4944468;29;20107;-60
2022/01/16 09:18:04;;;;;;;37.08;30.90;;;0.10;99.90;;;;;;4944088;29;20027;-60
2022/01/16 09:20:30;;;;;;;31.48;25.27;;;0.10;99.90;;;;;;4948808;28;20484;-57
2022/01/16 09:22:55;;;;;;;28.70;24.42;;;0.20;99.90;;;;;;4946814;29;20543;-59
2022/01/16 09:25:22;;;;;;;27.75;24.48;;;0.10;99.90;;;;;;4946471;28;20408;-59
2022/01/16 09:27:49;;;;;;;34.40;29.88;;;0.20;99.90;;;;;;4946718;29;20043;-59
2022/01/16 09:30:15;;;;;;;115.18;84.22;;;0.30;99.90;;;;;;4948598;28;20519;-59
2022/01/16 09:32:40;;;;;;;38.00;31.50;;;0.40;99.90;;;;;;4947932;28;20031;-59
2022/01/16 09:35:08;;;;;;;30.25;26.90;;;0.30;99.90;;;;;;4946206;29;20029;-59
2022/01/16 09:37:34;;;;;;;30.23;26.23;;;0.50;99.90;;;;;;4945374;29;20031;-56
2022/01/16 09:40:00;;;;;;;29.35;25.58;;;0.60;99.90;;;;;;4948377;28;20024;-58
2022/01/16 09:42:27;;;;;;;26.55;23.08;;;0.60;99.90;;;;;;4947700;28;20042;-59
2022/01/16 09:44:53;;;;;;;31.92;27.25;;;0.70;99.90;;;;;;4946553;29;20039;-59
2022/01/16 09:47:19;;;;;;;31.27;26.85;;;0.60;99.90;;;;;;4948606;29;20405;-59
2022/01/16 09:49:46;;;;;;;34.55;28.80;;;0.50;99.90;;;;;;4942448;28;20039;-60
2022/01/16 09:52:12;;;;;;;31.05;25.63;;;0.60;99.90;;;;;;4941532;28;20027;-59
2022/01/16 09:54:39;;;;;;;28.50;25.25;;;0.80;99.90;;;;;;4944992;29;20030;-60
2022/01/16 09:57:06;;;;;;;26.00;23.08;;;1.00;99.90;;;;;;4948280;28;20031;-59
2022/01/16 09:59:32;;;;;;;26.75;22.85;;;1.00;99.90;;;;;;4948210;28;20023;-58
2022/01/16 10:01:58;;;;;;;25.38;22.58;;;1.20;99.90;;;;;;4947023;29;20034;-59
2022/01/16 10:04:32;;;;;;;24.77;21.38;;;1.50;99.90;;;;;;4945581;29;20023;-59
2022/01/16 10:07:00;;;;;;;27.45;24.45;;;1.20;99.90;;;;;;4948531;28;20019;-59
2022/01/16 10:09:27;;;;;;;29.73;24.20;;;1.10;99.90;;;;;;4947595;29;20054;-60
2022/01/16 10:12:02;;;;;;;28.17;23.80;;;1.10;99.90;;;;;;4947504;29;20062;-58
2022/01/16 10:14:45;;;;;;;28.05;24.13;;;1.30;99.90;;;;;;4942225;29;20076;-59
2022/01/16 10:17:13;;;;;;;30.77;26.38;;;1.40;99.90;;;;;;4950497;28;20403;-60
2022/01/16 10:19:39;;;;;;;31.27;26.98;;;1.30;99.90;;;;;;4950582;28;20031;-60
2022/01/16 10:22:11;;;;;;;99.90;78.53;;;1.50;99.90;;;;;;4954493;29;20180;-59
2022/01/16 10:24:39;;;;;;;241.38;122.70;;;1.30;99.90;;;;;;4951932;29;20554;-59
2022/01/16 10:27:08;;;;;;;63.22;41.13;;;1.60;99.90;;;;;;4951551;29;20067;-60
2022/01/16 10:29:41;;;;;;;56.35;47.85;;;1.70;99.90;;;;;;4950058;29;20074;-60
2022/01/16 10:32:19;;;;;;;34.10;28.48;;;1.80;99.90;;;;;;4950831;29;20031;-59
2022/01/16 10:34:48;;;;;;;51.47;40.85;;;1.90;99.90;;;;;;4935942;29;20110;-59
2022/01/16 10:37:25;;;;;;;126.35;96.28;;;2.10;99.90;;;;;;4952442;28;20038;-60
2022/01/16 10:40:02;;;;;;;104.68;93.28;;;2.60;99.90;;;;;;4951802;29;20492;-59
2022/01/16 10:42:31;;;;;;;29.35;25.75;;;3.00;99.90;;;;;;4949613;29;20051;-60
2022/01/16 10:45:10;;;;;;;25.42;22.65;;;4.90;99.90;;;;;;4949766;28;20031;-59
2022/01/16 10:47:51;;;;;;;21.80;19.30;;;5.10;99.90;;;;;;4949717;29;20492;-59
2022/01/16 10:50:22;;;;;;;22.58;18.08;;;5.30;99.90;;;;;;4950111;29;20035;-60
2022/01/16 10:52:59;;;;;;;21.00;18.33;;;6.00;99.90;;;;;;4950033;28;20389;-60
2022/01/16 10:55:49;;;;;;;22.77;19.10;;;5.80;99.90;;;;;;4951705;28;20040;-59
2022/01/16 10:58:21;;;;;;;21.63;18.98;;;5.70;99.90;;;;;;4952398;28;20027;-60
2022/01/16 11:00:54;;;;;;;21.88;18.35;;;6.00;99.90;;;;;;4951543;29;20027;-60
2022/01/16 11:03:22;;;;;;;19.52;17.42;;;6.20;99.90;;;;;;4949959;28;20488;-60
2022/01/16 11:05:49;;;;;;;20.67;18.05;;;6.90;99.90;;;;;;4951367;29;20031;-59
2022/01/16 11:08:20;;;;;;;17.90;16.00;;;7.80;99.90;;;;;;4950540;28;20046;-59
2022/01/16 11:10:51;;;;;;;17.63;15.48;;;8.20;99.90;;;;;;4959102;28;20035;-59
2022/01/16 11:13:19;;;;;;;19.63;16.02;;;8.20;99.90;;;;;;4949366;28;20370;-59
2022/01/16 11:15:54;;;;;;;18.65;16.20;;;7.70;99.90;;;;;;4958717;28;20499;-59
2022/01/16 11:18:21;;;;;;;18.17;16.17;;;7.60;99.90;;;;;;4951074;28;20114;-59
2022/01/16 11:23:47;;;;;;;21.65;15.93;;;8.30;99.90;;;;;;4949924;29;20091;-59
2022/01/16 11:26:14;;;;;;;;;;;8.00;99.90;;;;;;4949991;28;20038;-59
2022/01/16 11:28:40;;;;;;;22.17;17.63;;;8.40;99.90;;;;;;4949260;29;19925;-60
2022/01/16 11:31:09;;;;;;;17.98;14.80;;;8.20;99.90;;;;;;4953671;28;20025;-60
2022/01/16 11:33:37;;;;;;;24.60;18.92;;;8.60;99.90;;;;;;4950659;29;20496;-60
2022/01/16 11:36:09;;;;;;;20.90;17.45;;;9.50;99.90;;;;;;4949544;29;20049;-60
2022/01/16 11:38:40;;;;;;;22.38;18.35;;;9.30;99.90;;;;;;4951382;29;20090;-59
2022/01/16 11:41:24;;;;;;;18.63;15.95;;;9.20;99.90;;;;;;4949639;29;20058;-59
2022/01/16 11:43:52;;;;;;;17.90;15.38;;;9.80;99.90;;;;;;4937194;29;20067;-59
2022/01/16 11:46:25;;;;;;;18.92;15.43;;;9.20;99.90;;;;;;4952159;28;20035;-60
2022/01/16 11:49:03;;;;;;;16.67;13.40;;;9.70;99.90;;;;;;4952290;29;20046;-60
2022/01/16 11:51:39;;;;;;;28.08;18.58;;;9.90;99.90;;;;;;4949342;29;20063;-60
2022/01/16 11:54:13;;;;;;;14.18;12.60;;;10.70;99.90;;;;;;4949486;28;20034;-60
2022/01/16 11:56:41;;;;;;;15.68;13.40;;;11.00;99.90;;;;;;4949083;28;20043;-59
2022/01/16 11:59:31;;;;;;;18.35;14.10;;;10.50;99.90;;;;;;4949250;29;20440;-59
2022/01/16 12:02:09;;;;;;;15.43;13.13;;;10.70;99.90;;;;;;4936807;29;20035;-60
2022/01/16 12:04:36;;;;;;;14.70;12.40;;;10.60;99.90;;;;;;4934827;29;20042;-60
2022/01/16 12:07:21;;;;;;;13.85;12.43;;;10.90;99.90;;;;;;4953887;29;20074;-58
2022/01/16 12:09:53;;;;;;;13.80;12.10;;;10.80;99.90;;;;;;4951047;29;20492;-60
2022/01/16 12:12:18;;;;;;;12.75;11.38;;;11.50;99.90;;;;;;4948626;29;20027;-60
2022/01/16 12:15:01;;;;;;;12.60;11.30;;;11.70;99.90;;;;;;4949485;28;20381;-60
2022/01/16 12:17:44;;;;;;;14.52;11.60;;;11.30;99.90;;;;;;4954564;28;20023;-60
2022/01/16 12:22:57;;;;;;;15.85;13.65;;;10.70;99.90;;;;;;4954720;29;20437;-60
2022/01/16 12:25:28;;;;;;;15.18;11.52;;;10.90;99.90;;;;;;4954597;29;20031;-60
2022/01/16 12:28:03;;;;;;;16.42;13.65;;;9.80;99.90;;;;;;4954974;29;20452;-60
2022/01/16 12:30:59;;;;;;;14.52;11.40;;;10.30;99.90;;;;;;4952230;29;20043;-60
2022/01/16 12:33:25;;;;;;;14.20;11.27;;;10.80;99.90;;;;;;4952537;29;20038;-60
2022/01/16 12:35:51;;;;;;;12.13;9.98;;;10.50;99.90;;;;;;4952551;29;20031;-60
2022/01/16 12:38:18;;;;;;;13.38;11.07;;;10.10;99.90;;;;;;4952335;29;20043;-60
2022/01/16 12:40:47;;;;;;;13.85;10.63;;;9.60;99.90;;;;;;4952437;29;20028;-60
2022/01/16 12:43:30;;;;;;;12.45;9.65;;;9.50;99.90;;;;;;4954701;28;20533;-60
2022/01/16 12:45:57;;;;;;;11.40;9.63;;;10.30;99.90;;;;;;4955827;29;20042;-60
2022/01/16 12:48:23;;;;;;;12.43;8.48;;;10.50;99.90;;;;;;4951979;28;20543;-59
2022/01/16 12:50:49;;;;;;;14.73;12.02;;;10.50;99.90;;;;;;4952112;28;20389;-60
2022/01/16 12:53:37;;;;;;;14.48;10.30;;;10.50;99.90;;;;;;4952437;29;20023;-59
2022/01/16 12:56:18;;;;;;;12.60;8.85;;;9.80;99.90;;;;;;4953668;29;20050;-59
2022/01/16 12:58:44;;;;;;;12.07;8.40;;;9.80;99.90;;;;;;4938250;29;20102;-60
2022/01/16 13:01:10;;;;;;;11.93;8.80;;;9.60;99.90;;;;;;4954869;29;20444;-60
2022/01/16 13:03:36;;;;;;;13.98;10.70;;;9.70;99.90;;;;;;4954227;28;20039;-60
2022/01/16 13:06:23;;;;;;;13.52;8.68;;;10.40;99.90;;;;;;4949524;29;20039;-60
2022/01/16 13:09:15;;;;;;;14.50;10.88;;;9.80;99.90;;;;;;4949918;29;20484;-60
2022/01/16 13:11:49;;;;;;;12.77;8.77;;;9.80;99.90;;;;;;4945983;29;20098;-58
2022/01/16 13:14:23;;;;;;;17.70;11.85;;;9.10;99.90;;;;;;4946737;29;20027;-60
2022/01/16 13:16:59;;;;;;;11.55;9.35;;;8.90;99.90;;;;;;4946597;29;20408;-60
2022/01/16 13:19:38;;;;;;;24.92;18.65;;;10.10;99.90;;;;;;4946181;29;20095;-60
2022/01/16 13:22:07;;;;;;;13.63;9.48;;;10.30;99.90;;;;;;4952403;28;20035;-59
2022/01/16 13:24:34;;;;;;;11.27;8.57;;;10.50;99.90;;;;;;4952878;29;20063;-63
2022/01/16 13:27:04;;;;;;;13.48;8.90;;;10.70;99.90;;;;;;4949542;28;20031;-60